METAR Data
IDs: Format: Raw Decoded Include TAF

Data at: 0238 UTC 05 Jun 2020

KDMO 050153Z AUTO 13006KT 10SM CLR 25/21 A2980 RMK AO2 SLP084 T02500206
KDMO 050053Z AUTO 15005KT 10SM CLR 27/21 A2980 RMK AO2 SLP083 T02720206
KDMO 042353Z AUTO 17005KT 10SM CLR 28/20 A2980 RMK AO2 SLP083 T02830200 10294 20272 56006
KDMO 042253Z AUTO 13003KT 10SM CLR 29/20 A2980 RMK AO2 SLP084 T02890200
KDMO 042153Z AUTO 10SM CLR 29/19 A2981 RMK AO2 SLP086 T02890194
KDMO 042053Z AUTO VRB06KT 10SM CLR 29/19 A2982 RMK AO2 SLP090 T02890189 56012
KDMO 041953Z AUTO VRB04KT 10SM CLR 28/19 A2983 RMK AO2 SLP092 T02830194
KDMO 041853Z AUTO 15004KT 10SM CLR 28/19 A2984 RMK AO2 SLP098 T02780189
KDMO 041753Z AUTO 11007KT 10SM CLR 27/19 A2986 RMK AO2 SLP102 T02720189 10272 20183 50012
KDMO 041653Z AUTO 23004KT 10SM CLR 26/19 A2986 RMK AO2 SLP102 T02610189
KDMO 041553Z AUTO 22007KT 10SM CLR 25/19 A2983 RMK AO2 SLP093 T02500189
KDMO 041453Z AUTO 22009KT 10SM CLR 24/18 A2982 RMK AO2 SLP088 T02440178 56015
KDMO 041353Z AUTO 26006KT 10SM CLR 21/18 A2982 RMK AO2 PRESRR SLP090 T02110178
KDMO 041253Z AUTO 18006KT 10SM CLR 19/17 A2981 RMK AO2 SLP085 T01890172
KDMO 041153Z AUTO 08005KT 10SM FEW050 SCT100 18/17 A2986 RMK AO2 PK WND 12026/1114 RAE45 SLP105 P0009 60094 70108 T01830167 10194 20178 58024
KDMO 041053Z AUTO 13015KT 8SM RA BKN085 OVC110 18/17 A2988 RMK AO2 PRESFR SLP109 P0023 T01780167
KDMO 040953Z AUTO 00000KT 5SM -RA BR BKN090 OVC110 18/17 A2995 RMK AO2 PK WND 31042/0854 LTG DSNT SW TSB12E27 SLP131 P0026 T01780167
KDMO 040933Z AUTO 31006KT 10SM -RA FEW050 SCT075 OVC095 18/17 A2996 RMK AO2 PK WND 31042/0854 LTG DSNT NE AND S AND SW TSB12E27 P0021 T01780167
KDMO 040923Z AUTO 32012KT 10SM -TSRA SCT034 BKN085 OVC100 18/17 A2997 RMK AO2 PK WND 31042/0854 LTG DSNT S-W TSB12 P0021 T01780167
KDMO 040912Z AUTO 31010G28KT 5SM TSRA BR FEW007 BKN028 OVC095 18/17 A2998 RMK AO2 PK WND 31042/0854 LTG DSNT S-W TSB12 P0020 T01830167
KDMO 040905Z AUTO 33020G41KT 2SM +RA BR SCT007 BKN026 OVC065 18/17 A2996 RMK AO2 PK WND 31042/0854 LTG DSNT ALQDS P0018 T01830167
KDMO 040903Z AUTO 33021G42KT 1 1/4SM +RA BR SCT007 BKN020 OVC065 18/17 A2996 RMK AO2 PK WND 31042/0854 LTG DSNT ALQDS P0018 T01830167
KDMO 040857Z AUTO 32026G56KT 3/4SM +RA SQ SCT008 BKN016 OVC085 19/17 A2996 RMK AO2 PK WND 31042/0854 LTG DSNT ALQDS P0012 T01940167
KDMO 040853Z AUTO 32034G56KT 1SM +RA BR SQ SCT008 BKN012 OVC085 19/17 A2994 RMK AO2 PK WND 33056/0852 LTG DSNT SW-N RAE05B45 SLP128 P0026 60036 T01890172 53019
KDMO 040832Z AUTO 11010KT 10SM FEW008 OVC085 19/17 A2982 RMK AO2 LTG DSNT SW-N RAE05 P0000 T01890172
KDMO 040753Z AUTO 17007KT 10SM -RA OVC080 18/17 A2984 RMK AO2 LTG DSNT ALQDS RAE41B52 SLP097 P0002 T01830172
KDMO 040745Z AUTO 15011KT 10SM OVC080 19/17 A2984 RMK AO2 LTG DSNT ALQDS RAE41 P0002 T01890172
KDMO 040730Z AUTO 14011KT 10SM VCTS -RA BKN075 OVC100 18/17 A2983 RMK AO2 LTG DSNT ALQDS P0002 T01830172
KDMO 040653Z AUTO 14006KT 9SM -RA OVC070 18/17 A2985 RMK AO2 LTG DSNT ALQDS TSE01 SLP099 P0008 T01830167
KDMO 040625Z AUTO 10008G16KT 9SM -RA OVC070 19/17 A2986 RMK AO2 LTG DSNT S-NW TSE01 P0004 T01890167
KDMO 040607Z AUTO 12009KT 8SM VCTS -RA OVC065 19/17 A2987 RMK AO2 LTG DSNT N AND S TSE01 P0003 T01890172
KDMO 040553Z AUTO 15010KT 10SM -TSRA OVC060 19/17 A2988 RMK AO2 PK WND 09049/0455 LTG DSNT ALQDS RAB04 TSB46 SLP109 P0014 60014 T01890172 10294 20189 403280189 51021
KDMO 040537Z AUTO 11013G24KT 4SM VCTS +RA BR OVC055 19/17 A2990 RMK AO2 PK WND 09049/0455 LTG DSNT ALQDS RAB04 P0014 T01890172
KDMO 040453Z AUTO 10024G45KT 10SM SCT030 BKN039 OVC060 22/16 A2990 RMK AO2 PK WND 10048/0438 LTG DSNT NE-SE SLP115 T02170156
KDMO 040353Z AUTO 20009KT 10SM CLR 27/22 A2981 RMK AO2 SLP086 T02720217
KDMO 040253Z AUTO 18008KT 10SM CLR 27/22 A2980 RMK AO2 SLP081 T02670222 53001
KDMO 040153Z AUTO 20008KT 10SM CLR 28/22 A2978 RMK AO2 SLP074 T02780222
KDMO 040053Z AUTO 20006KT 10SM CLR 29/23 A2980 RMK AO2 SLP082 T02940228
KDMO 032353Z AUTO 22007KT 10SM CLR 29/22 A2980 RMK AO2 LTG DSNT W SLP081 T02940222 10328 20294 56013
KDMO 032253Z AUTO 22010KT 10SM FEW048 32/22 A2981 RMK AO2 SLP083 T03170217
KDMO 032153Z AUTO 21012KT 10SM CLR 32/22 A2982 RMK AO2 SLP087 T03220217
KDMO 032053Z AUTO 22010KT 10SM FEW043 32/22 A2983 RMK AO2 SLP093 T03220222 56022
KDMO 031953Z AUTO 21010KT 10SM CLR 32/22 A2985 RMK AO2 SLP099 T03170222
KDMO 031853Z AUTO 19011KT 10SM CLR 32/22 A2987 RMK AO2 SLP106 T03170222
KDMO 031653Z AUTO 25008G20KT 10SM CLR 30/21 A2991 RMK AO2 SLP119 T03000211
KDMO 031553Z AUTO 23011G20KT 10SM CLR 29/21 A2991 RMK AO2 SLP119 T02890211
KDMO 031453Z AUTO 23014G23KT 10SM FEW075 27/21 A2992 RMK AO2 SLP123 T02720206 58001